Time;durP1;ratioP1;P1;durP2;ratioP2;P2;SDS_P1;SDS_P2;PMS_P1;PMS_P2;Temp;Humidity;BMP_temperature;BMP_pressure;BME280_temperature;BME280_humidity;BME280_pressure;Samples;Min_cycle;Max_cycle;Signal;HPM_P1;HPM_P2
2022/05/19 00:00:25;;;;;;;5.43;4.93;;;16.30;59.80;;;15.27;61.74;98549.06;5048121;28;20998;-72
2022/05/19 00:02:51;;;;;;;6.13;4.87;;;16.20;60.00;;;15.20;62.38;98542.88;5056439;28;20453;-74
2022/05/19 00:05:19;;;;;;;5.57;5.10;;;16.20;60.30;;;15.17;62.29;98546.06;5055387;28;20437;-73
2022/05/19 00:07:46;;;;;;;4.90;4.50;;;16.10;60.20;;;15.11;62.26;98533.41;5053005;28;20944;-74
2022/05/19 00:10:13;;;;;;;5.77;5.27;;;16.10;60.50;;;15.02;62.88;98541.06;5052483;28;20462;-74
2022/05/19 00:12:40;;;;;;;5.67;4.90;;;16.00;60.80;;;15.07;62.01;98543.91;5034877;28;20468;-74
2022/05/19 00:15:11;;;;;;;5.30;4.90;;;15.90;60.50;;;14.97;62.36;98533.59;5032533;28;20458;-73
2022/05/19 00:17:39;;;;;;;6.60;4.87;;;15.90;60.40;;;14.47;62.92;98488.44;5034889;28;20743;-73
2022/05/19 00:20:07;;;;;;;7.10;5.20;;;15.80;60.60;;;14.80;62.29;98541.56;5034257;28;20476;-73
2022/05/19 00:22:36;;;;;;;5.43;4.77;;;15.70;60.40;;;14.50;62.00;98503.47;5051976;28;20441;-72
2022/05/19 00:25:03;;;;;;;6.27;4.20;;;15.70;60.40;;;14.68;61.85;98544.22;5075544;28;20471;-73
2022/05/19 00:27:30;;;;;;;5.03;4.60;;;15.70;60.50;;;14.66;62.00;98546.34;5074814;28;20472;-72
2022/05/19 00:29:58;;;;;;;5.60;5.20;;;15.60;60.20;;;14.64;61.90;98548.47;5075356;28;20455;-72
2022/05/19 00:32:26;;;;;;;4.97;4.57;;;15.60;60.40;;;14.75;61.23;98536.00;5075263;28;20570;-74
2022/05/19 00:34:53;;;;;;;5.30;4.80;;;15.60;59.90;;;14.70;61.70;98539.38;5075187;28;20528;-73
2022/05/19 00:37:20;;;;;;;5.10;4.50;;;15.60;60.10;;;14.72;60.37;98536.47;5067584;28;20460;-73
2022/05/19 00:39:47;;;;;;;5.23;4.77;;;15.60;59.40;;;14.44;60.84;98489.72;5054711;28;20452;-73
2022/05/19 00:45:01;;;;;;;4.33;3.93;;;15.60;59.50;;;14.68;60.44;98533.34;5070260;28;20457;-74
2022/05/19 00:47:37;;;;;;;5.40;4.80;;;15.60;59.10;;;14.70;59.71;98533.09;5055047;28;20543;-74
2022/05/19 00:50:08;;;;;;;5.00;4.57;;;15.60;58.60;;;14.56;60.43;98519.69;5054579;28;20449;-74
2022/05/19 00:52:40;;;;;;;5.07;4.67;;;15.60;58.90;;;14.58;59.57;98536.59;5054784;28;20462;-74
2022/05/19 00:55:12;;;;;;;5.17;4.30;;;15.50;58.40;;;14.55;59.68;98531.59;5053197;28;21004;-73
2022/05/19 00:57:46;;;;;;;5.03;4.53;;;15.50;58.60;;;14.61;58.64;98535.28;5055420;28;20483;-74
2022/05/19 01:00:18;;;;;;;5.07;4.60;;;15.50;58.10;;;14.43;59.33;98533.44;5053722;28;20518;-74
2022/05/19 01:02:54;;;;;;;5.50;4.90;;;15.50;58.20;;;14.38;60.15;98531.41;5052716;28;20959;-74
2022/05/19 01:05:26;;;;;;;5.40;4.90;;;15.30;58.60;;;14.17;60.55;98536.22;5070110;28;20434;-74
2022/05/19 01:07:58;;;;;;;4.90;3.97;;;15.20;58.70;;;14.07;60.95;98535.09;5054745;28;20546;-74
2022/05/19 01:10:26;;;;;;;4.97;4.67;;;15.00;59.00;;;14.16;60.74;98548.16;5061122;28;20438;-74
2022/05/19 01:12:54;;;;;;;4.60;4.20;;;15.10;58.90;;;14.11;61.40;98542.59;5032363;28;20504;-74
2022/05/19 01:15:21;;;;;;;4.83;4.37;;;15.00;59.30;;;14.12;61.13;98538.81;5034752;28;20448;-73
2022/05/19 01:17:50;;;;;;;5.50;5.00;;;15.00;59.30;;;14.10;60.90;98540.91;5032834;28;20445;-73
2022/05/19 01:20:21;;;;;;;6.27;4.87;;;15.00;59.10;;;14.05;60.92;98542.66;5034014;28;20533;-73
2022/05/19 01:22:57;;;;;;;4.40;4.00;;;15.00;59.20;;;13.93;61.37;98546.09;5033606;28;20445;-73
2022/05/19 01:25:36;;;;;;;5.10;3.90;;;14.90;59.10;;;13.82;61.63;98550.41;5036257;28;20543;-73
2022/05/19 01:28:05;;;;;;;5.20;4.70;;;14.80;59.30;;;13.80;62.21;98543.50;5053858;28;20934;-73
2022/05/19 01:30:32;;;;;;;5.03;4.57;;;14.70;59.60;;;13.96;61.09;98545.69;5070078;28;20444;-73
2022/05/19 01:33:00;;;;;;;4.90;4.50;;;14.80;59.40;;;13.98;60.98;98548.16;5055874;28;20555;-72
2022/05/19 01:35:33;;;;;;;5.57;4.50;;;14.80;59.20;;;13.87;61.11;98542.41;5072518;28;20507;-73
2022/05/19 01:38:02;;;;;;;5.97;5.03;;;14.90;59.30;;;13.66;61.81;98529.25;5049218;28;20452;-74
2022/05/19 01:40:42;;;;;;;5.20;4.70;;;14.70;59.40;;;13.70;62.04;98547.59;5034197;28;20436;-74
2022/05/19 01:43:21;;;;;;;5.37;4.83;;;14.60;59.70;;;13.56;62.26;98546.84;5050225;28;20445;-73
2022/05/19 01:46:04;;;;;;;8.40;4.03;;;14.50;59.60;;;13.41;62.08;98533.59;5033787;28;20472;-74
2022/05/19 01:48:40;;;;;;;4.97;4.47;;;14.50;60.00;;;13.46;62.74;98546.53;5034327;28;20539;-73
2022/05/19 01:51:17;;;;;;;5.07;4.17;;;14.30;60.00;;;13.45;62.39;98539.47;5034015;28;20489;-73
2022/05/19 01:53:51;;;;;;;7.43;4.70;;;14.40;60.10;;;13.49;62.53;98550.69;5034669;28;20467;-72
2022/05/19 01:56:25;;;;;;;6.50;5.90;;;14.40;60.10;;;13.55;62.36;98552.53;5033726;28;20442;-73
2022/05/19 01:59:07;;;;;;;5.30;4.80;;;14.40;60.10;;;13.54;61.88;98548.97;5034072;28;20642;-73
2022/05/19 02:01:34;;;;;;;5.73;4.67;;;14.50;59.90;;;13.46;62.89;98547.38;5033967;28;20495;-73
2022/05/19 02:04:08;;;;;;;5.10;4.70;;;14.40;60.30;;;13.50;62.58;98553.19;5034188;28;20440;-73
2022/05/19 02:06:40;;;;;;;5.23;4.80;;;14.40;60.30;;;13.52;62.41;98556.50;5034637;28;20479;-74
2022/05/19 02:09:11;;;;;;;4.57;4.13;;;14.40;60.10;;;13.54;61.80;98551.69;5034423;28;20448;-73
2022/05/19 02:11:42;;;;;;;4.80;4.40;;;14.50;59.80;;;13.48;61.96;98544.44;5033268;28;20481;-73
2022/05/19 02:14:15;;;;;;;5.50;4.30;;;14.50;59.60;;;13.53;61.56;98552.72;5033754;28;20438;-73
2022/05/19 02:16:44;;;;;;;5.20;4.37;;;14.50;59.50;;;13.52;61.37;98539.41;5033964;28;20452;-73
2022/05/19 02:19:14;;;;;;;5.00;4.27;;;14.50;59.30;;;13.52;61.11;98542.94;5049610;28;20476;-73
2022/05/19 02:21:41;;;;;;;4.60;4.00;;;14.50;59.10;;;13.29;60.94;98513.66;5033696;28;20522;-73
2022/05/19 02:24:13;;;;;;;3.90;3.60;;;14.50;59.10;;;13.48;60.42;98541.72;5033392;28;20475;-73
2022/05/19 02:26:41;;;;;;;5.80;4.40;;;14.40;58.80;;;13.45;60.81;98542.16;5033690;28;20542;-73
2022/05/19 02:29:17;;;;;;;6.17;4.10;;;14.40;58.70;;;13.41;60.77;98533.59;5049043;28;20531;-73
2022/05/19 02:31:45;;;;;;;4.57;4.17;;;14.40;58.70;;;13.41;60.81;98538.19;5033777;28;20463;-72
2022/05/19 02:34:13;;;;;;;6.00;3.90;;;14.40;58.70;;;13.36;60.75;98532.59;5032124;28;20453;-72
2022/05/19 02:36:41;;;;;;;4.20;3.63;;;14.30;58.60;;;13.36;60.36;98533.44;5033407;28;20447;-72
2022/05/19 02:39:09;;;;;;;4.43;4.03;;;14.30;58.40;;;13.34;60.16;98537.41;5049102;28;20866;-73
2022/05/19 02:41:38;;;;;;;4.57;4.17;;;14.30;58.30;;;13.22;60.73;98535.41;5033861;28;20921;-73
2022/05/19 02:44:06;;;;;;;4.33;3.80;;;14.30;58.50;;;13.17;60.87;98535.25;5033540;28;20450;-72
2022/05/19 02:46:34;;;;;;;5.97;4.10;;;14.10;58.60;;;13.10;60.76;98526.31;5034268;28;20983;-72
2022/05/19 02:49:02;;;;;;;4.90;4.40;;;14.10;58.40;;;13.07;60.71;98527.59;5033647;28;20438;-71
2022/05/19 02:51:30;;;;;;;6.60;4.30;;;14.10;58.40;;;13.00;61.03;98530.34;5033104;28;20456;-73
2022/05/19 02:53:58;;;;;;;4.43;4.00;;;14.00;58.60;;;12.98;60.81;98524.31;5033830;28;20879;-73
2022/05/19 02:56:25;;;;;;;5.80;4.50;;;14.00;58.50;;;12.93;61.17;98528.75;5033358;28;20535;-74
2022/05/19 02:58:52;;;;;;;7.20;4.60;;;14.00;58.90;;;12.92;61.57;98527.06;5048741;28;20853;-73
2022/05/19 03:01:20;;;;;;;4.13;3.83;;;13.90;59.00;;;12.75;62.50;98523.00;5032671;28;20448;-73
2022/05/19 03:03:48;;;;;;;5.30;4.10;;;13.70;59.30;;;12.74;62.50;98524.03;5033572;28;20443;-74
2022/05/19 03:06:16;;;;;;;4.87;4.30;;;13.70;59.40;;;12.75;62.06;98530.31;5033422;28;20432;-74
2022/05/19 03:08:43;;;;;;;4.50;4.20;;;13.70;59.20;;;12.75;61.98;98523.00;5036735;28;20434;-74
2022/05/19 03:11:10;;;;;;;6.20;4.57;;;13.70;59.10;;;12.75;62.26;98525.69;5037056;28;20441;-74
2022/05/19 03:13:37;;;;;;;4.70;4.17;;;13.70;59.30;;;12.72;62.17;98531.56;5036572;28;20459;-74
2022/05/19 03:16:08;;;;;;;5.03;4.50;;;13.70;59.20;;;12.73;62.28;98527.78;5036729;28;20983;-75
2022/05/19 03:18:36;;;;;;;5.03;4.30;;;13.70;59.40;;;12.71;62.27;98524.47;5052624;28;20490;-74
2022/05/19 03:21:06;;;;;;;4.63;4.07;;;13.70;59.50;;;12.65;62.42;98533.47;5036597;28;20470;-75
2022/05/19 03:23:33;;;;;;;6.80;4.73;;;13.70;59.40;;;12.61;62.80;98535.78;5052479;28;20521;-72
2022/05/19 03:26:00;;;;;;;6.43;4.73;;;13.60;59.40;;;12.55;62.37;98533.13;5036495;28;20437;-71
2022/05/19 03:28:28;;;;;;;6.23;4.53;;;13.60;59.40;;;12.54;62.70;98524.13;5036367;28;20470;-72
2022/05/19 03:30:55;;;;;;;10.57;4.70;;;13.60;59.60;;;12.53;62.50;98527.06;5051522;28;20445;-74
2022/05/19 03:33:22;;;;;;;4.97;4.43;;;13.60;59.50;;;12.56;62.64;98532.06;5035371;28;20540;-74
2022/05/19 03:35:57;;;;;;;6.20;4.67;;;13.50;59.50;;;12.43;63.01;98524.81;5051721;28;20510;-74
2022/05/19 03:38:27;;;;;;;6.50;5.10;;;13.50;59.50;;;12.39;63.56;98531.72;5037219;28;20490;-74
2022/05/19 03:40:54;;;;;;;4.60;4.17;;;13.40;59.90;;;12.40;63.63;98530.66;5035820;28;20444;-74
2022/05/19 03:43:21;;;;;;;5.43;4.80;;;13.40;60.10;;;12.45;63.28;98528.97;5037421;28;20482;-74
2022/05/19 03:45:48;;;;;;;6.87;4.40;;;13.50;60.40;;;12.37;64.05;98534.66;5035943;28;20475;-74
2022/05/19 03:48:16;;;;;;;6.50;5.27;;;13.40;60.20;;;12.46;63.16;98530.63;5035473;28;20444;-73
2022/05/19 03:50:46;;;;;;;6.63;4.60;;;13.50;60.30;;;12.51;63.85;98526.44;5035969;28;20850;-73
2022/05/19 03:53:13;;;;;;;5.27;4.80;;;13.50;60.30;;;12.61;64.27;98529.53;5035403;28;20467;-72
2022/05/19 03:55:42;;;;;;;5.40;4.97;;;13.60;60.80;;;12.66;63.56;98532.44;5052224;28;20479;-74
2022/05/19 03:58:10;;;;;;;8.17;5.13;;;13.60;60.60;;;12.62;62.66;98536.59;5035449;28;20532;-73
2022/05/19 04:00:36;;;;;;;8.67;4.90;;;13.60;60.10;;;12.63;63.32;98538.28;5035890;28;20476;-73
2022/05/19 04:03:04;;;;;;;9.43;5.20;;;13.60;60.50;;;12.86;62.03;98534.19;5050841;28;20531;-73
2022/05/19 04:05:31;;;;;;;5.20;4.80;;;13.80;60.00;;;12.95;61.70;98534.78;5051770;28;20432;-73
2022/05/19 04:07:58;;;;;;;5.80;5.33;;;14.00;59.70;;;12.99;61.67;98525.97;5034642;28;20485;-73
2022/05/19 04:10:26;;;;;;;5.17;4.77;;;14.00;59.40;;;13.14;61.34;98532.97;5035545;28;20502;-73
2022/05/19 04:12:54;;;;;;;10.00;5.07;;;14.10;59.30;;;13.52;60.76;98534.78;5050574;28;20557;-73
2022/05/19 04:15:22;;;;;;;10.30;5.47;;;14.50;59.40;;;14.11;58.62;98520.84;5050493;28;20476;-73
2022/05/19 04:17:49;;;;;;;6.07;5.27;;;15.10;58.30;;;14.68;57.08;98521.63;5051411;28;20445;-73
2022/05/19 04:20:17;;;;;;;6.83;6.33;;;15.80;57.60;;;15.13;55.45;98514.94;5051117;28;20436;-72
2022/05/19 04:22:44;;;;;;;7.20;4.93;;;16.40;56.70;;;15.76;53.58;98518.09;5034783;28;20454;-72
2022/05/19 04:25:12;;;;;;;4.83;4.10;;;17.10;55.70;;;16.17;52.47;98511.94;5035393;28;20474;-72
2022/05/19 04:27:40;;;;;;;4.87;4.47;;;17.70;54.70;;;15.90;52.27;98513.25;5050395;28;20552;-72
2022/05/19 04:30:10;;;;;;;5.03;4.30;;;17.60;53.90;;;15.69;52.91;98517.38;5050168;28;20445;-74
2022/05/19 04:32:37;;;;;;;4.83;4.30;;;17.40;53.90;;;15.90;52.61;98520.59;5035317;28;20516;-75
2022/05/19 04:35:06;;;;;;;6.43;4.50;;;17.50;54.00;;;16.39;51.48;98514.84;5034719;28;20541;-74
2022/05/19 04:37:33;;;;;;;7.37;4.40;;;17.80;53.60;;;16.71;50.46;98528.03;5034768;28;20983;-73
2022/05/19 04:40:01;;;;;;;5.20;4.70;;;18.10;52.90;;;17.26;50.14;98518.38;5035033;28;20445;-79
2022/05/19 04:42:29;;;;;;;7.17;5.00;;;18.50;54.10;;;17.64;48.88;98506.94;5033439;28;20449;-79
2022/05/19 04:44:56;;;;;;;4.50;4.13;;;18.90;52.80;;;18.02;46.96;98518.16;5035131;28;20434;-78
2022/05/19 04:47:25;;;;;;;7.03;4.80;;;19.20;52.00;;;17.23;48.05;98471.63;5035151;28;20558;-78
2022/05/19 04:49:52;;;;;;;5.73;4.60;;;19.00;52.00;;;17.70;48.42;98522.38;5035530;28;20446;-77
2022/05/19 04:52:21;;;;;;;4.53;4.13;;;19.10;52.10;;;18.20;46.54;98504.25;5050733;28;20536;-78
2022/05/19 04:54:48;;;;;;;6.37;4.63;;;19.40;51.60;;;18.38;48.71;98519.50;5035646;28;20470;-82
2022/05/19 04:57:15;;;;;;;9.17;4.70;;;19.70;51.70;;;19.66;46.09;98517.47;5034060;28;20457;-76
2022/05/19 04:59:43;;;;;;;4.57;3.70;;;20.70;53.00;;;19.65;43.17;98518.56;5033645;28;20537;-78
2022/05/19 05:02:12;;;;;;;4.10;3.70;;;21.00;50.60;;;18.94;44.44;98510.25;5050675;28;20855;-77
2022/05/19 05:04:41;;;;;;;6.40;4.00;;;21.00;49.20;;;18.68;44.47;98520.94;5035367;28;20448;-78
2022/05/19 05:07:08;;;;;;;3.80;3.50;;;20.50;49.20;;;17.90;45.09;98449.94;5034744;28;20492;-77
2022/05/19 05:09:36;;;;;;;7.87;4.10;;;20.20;49.10;;;19.48;44.98;98494.84;5035037;28;20529;-78
2022/05/19 05:12:04;;;;;;;6.43;4.03;;;20.80;51.90;;;21.13;42.29;98526.13;5034285;28;20447;-76
2022/05/19 05:14:31;;;;;;;5.50;3.67;;;22.10;51.10;;;21.41;38.81;98523.94;5049847;28;21056;-77
2022/05/19 05:16:58;;;;;;;4.70;3.77;;;22.60;48.20;;;20.25;40.47;98532.13;5034455;28;20460;-77
2022/05/19 05:19:27;;;;;;;3.80;3.30;;;21.80;47.60;;;19.46;40.67;98534.59;5034642;28;20442;-78
2022/05/19 05:21:59;;;;;;;3.77;3.47;;;21.40;46.60;;;19.13;41.90;98529.09;5051675;28;20541;-78
2022/05/19 05:24:27;;;;;;;3.70;3.40;;;20.90;46.90;;;19.30;41.78;98525.41;5054595;28;20444;-77
2022/05/19 05:26:54;;;;;;;4.60;3.30;;;20.70;47.30;;;19.65;40.98;98527.59;5054806;28;20524;-78
2022/05/19 05:29:21;;;;;;;3.97;3.50;;;21.20;47.50;;;20.30;39.76;98531.31;5054047;28;20529;-78
2022/05/19 05:31:49;;;;;;;3.63;3.33;;;21.60;47.00;;;20.32;39.81;98527.22;5052752;28;20453;-74
2022/05/19 05:34:16;;;;;;;5.50;3.60;;;21.90;46.60;;;21.23;37.37;98532.44;5054324;28;20477;-75
2022/05/19 05:36:43;;;;;;;4.13;3.17;;;22.30;46.30;;;20.86;38.41;98519.75;5056126;28;20449;-80
2022/05/19 05:39:12;;;;;;;4.10;3.07;;;22.30;46.00;;;20.60;40.06;98525.13;5052872;28;20883;-79
2022/05/19 05:41:39;;;;;;;5.90;3.43;;;22.20;46.50;;;20.28;39.65;98526.09;5054294;28;20523;-81
2022/05/19 05:44:06;;;;;;;7.30;4.37;;;21.80;46.20;;;20.72;38.78;98526.81;5053008;28;20445;-79
2022/05/19 05:46:34;;;;;;;4.50;3.67;;;22.00;46.40;;;20.74;38.68;98525.44;5054551;28;20428;-78
2022/05/19 05:49:01;;;;;;;4.20;3.47;;;22.00;46.40;;;20.74;39.27;98527.38;5053788;28;20420;-76
2022/05/19 05:51:28;;;;;;;4.53;3.70;;;22.00;46.70;;;21.31;38.51;98527.53;5053689;28;20860;-76
2022/05/19 05:53:55;;;;;;;5.20;3.43;;;22.50;46.60;;;20.36;41.05;98528.31;5068844;28;21003;-76
2022/05/19 05:56:24;;;;;;;4.07;3.67;;;22.10;46.90;;;21.14;38.97;98530.50;5069452;28;20477;-77
2022/05/19 05:58:52;;;;;;;3.20;2.90;;;22.20;46.70;;;20.75;38.99;98529.03;5053454;28;20441;-83
2022/05/19 06:01:21;;;;;;;6.30;3.50;;;22.20;46.30;;;20.34;40.83;98533.25;5053985;28;20877;-82
2022/05/19 06:03:50;;;;;;;5.50;3.20;;;21.80;46.70;;;20.76;39.46;98530.69;5053965;28;20937;-81
2022/05/19 06:06:18;;;;;;;9.60;4.27;;;22.30;46.20;;;21.38;38.34;98522.56;5056292;28;20477;-83
2022/05/19 06:08:46;;;;;;;5.40;3.50;;;22.50;46.30;;;21.20;38.77;98527.50;5054550;28;20464;-84
2022/05/19 06:11:14;;;;;;;4.10;3.10;;;22.50;46.20;;;20.73;39.29;98529.28;5053742;28;20437;-83
2022/05/19 06:13:45;;;;;;;4.83;3.57;;;22.10;46.00;;;19.95;40.36;98530.88;5069969;28;20870;-85
2022/05/19 06:16:13;;;;;;;6.17;3.20;;;21.50;46.20;;;19.20;41.77;98537.09;5059001;28;20440;-85
2022/05/19 06:18:39;;;;;;;3.20;2.90;;;20.70;46.50;;;18.94;42.54;98526.69;5057839;28;20927;-85
2022/05/19 06:21:08;;;;;;;4.00;2.67;;;20.20;47.00;;;18.33;43.35;98524.91;5053652;28;20432;-82
2022/05/19 06:23:35;;;;;;;8.40;2.90;;;19.60;47.00;;;18.44;43.45;98520.38;5053127;28;20452;-82
2022/05/19 06:26:03;;;;;;;3.47;2.47;;;19.40;47.40;;;18.37;43.33;98515.09;5069002;28;20864;-82
2022/05/19 06:28:30;;;;;;;6.03;2.50;;;19.40;47.30;;;18.49;43.95;98514.16;5046481;28;20506;-81
2022/05/19 06:31:01;;;;;;;4.40;2.83;;;19.40;47.90;;;18.55;43.14;98507.66;5032504;28;20789;-83
2022/05/19 06:33:29;;;;;;;3.50;2.70;;;19.50;47.70;;;18.80;44.08;98504.38;5049701;28;20856;-83
2022/05/19 06:35:56;;;;;;;7.30;2.83;;;19.50;48.20;;;19.01;42.65;98495.56;5032620;28;20768;-83
2022/05/19 06:38:23;;;;;;;4.00;2.50;;;19.80;47.70;;;19.30;42.85;98506.22;5033575;28;20504;-84
2022/05/19 06:40:50;;;;;;;2.50;2.23;;;20.00;47.90;;;19.38;41.93;98506.56;5032624;28;20826;-82
2022/05/19 06:43:19;;;;;;;3.83;2.80;;;20.20;47.50;;;19.31;42.00;98492.28;5036315;28;20978;-83
2022/05/19 06:45:46;;;;;;;6.60;2.70;;;20.20;47.50;;;19.36;41.33;98495.06;5037964;28;20458;-80
2022/05/19 06:48:15;;;;;;;3.10;2.47;;;20.20;46.90;;;19.25;41.51;98491.41;5036460;28;20442;-81
2022/05/19 06:50:42;;;;;;;2.80;2.50;;;20.20;47.00;;;19.18;41.30;98496.25;5038068;28;20495;-85
2022/05/19 06:53:09;;;;;;;2.83;2.33;;;20.10;46.80;;;19.23;41.68;98492.75;5053018;28;20902;-81
2022/05/19 06:55:37;;;;;;;4.23;2.97;;;20.10;47.00;;;19.29;41.49;98507.31;5037139;28;20440;-82
2022/05/19 06:58:05;;;;;;;30.43;8.07;;;20.10;46.80;;;19.20;41.43;98505.06;5037448;28;20449;-82
2022/05/19 07:00:34;;;;;;;4.80;2.60;;;20.10;46.80;;;19.51;41.10;98504.47;5037534;28;20453;-83
2022/05/19 07:03:01;;;;;;;2.90;2.60;;;20.20;46.90;;;19.63;41.01;98496.06;5036339;28;20446;-73
2022/05/19 07:05:35;;;;;;;4.18;3.00;;;20.40;47.00;;;20.23;40.12;98504.13;5052188;28;20465;-81
2022/05/19 07:08:02;;;;;;;5.43;3.30;;;20.80;47.10;;;20.33;39.75;98500.63;5037634;28;20238;-82
2022/05/19 07:10:30;;;;;;;4.23;3.40;;;21.10;46.70;;;20.28;39.69;98506.91;5037021;28;20473;-80
2022/05/19 07:12:59;;;;;;;2.60;2.40;;;21.10;46.50;;;19.96;40.44;98511.38;5036922;28;20951;-80
2022/05/19 07:15:28;;;;;;;6.70;3.27;;;20.90;46.60;;;20.18;40.04;98504.09;5036950;28;20561;-80
2022/05/19 07:17:55;;;;;;;4.80;3.00;;;21.00;46.70;;;20.52;39.38;98498.19;5052080;28;20445;-78
2022/05/19 07:23:08;;;;;;;3.90;3.20;;;21.10;46.70;;;20.26;40.02;98489.06;5052503;28;20940;-79
2022/05/19 07:25:37;;;;;;;3.30;2.43;;;21.00;46.90;;;20.42;40.11;98478.97;5037225;28;20438;-79
2022/05/19 07:28:04;;;;;;;3.37;3.07;;;21.10;46.90;;;20.58;39.67;98486.16;5037105;28;20438;-79
2022/05/19 07:30:31;;;;;;;3.40;2.33;;;21.30;47.00;;;20.55;39.83;98488.63;5036971;28;20504;-81
2022/05/19 07:32:59;;;;;;;2.90;2.57;;;21.40;46.80;;;20.37;39.66;98482.53;5041901;28;20454;-82
2022/05/19 07:35:27;;;;;;;3.00;2.43;;;21.30;46.60;;;20.47;39.79;98485.31;5072906;28;20441;-82
2022/05/19 07:37:54;;;;;;;5.30;3.00;;;21.20;46.90;;;20.61;40.22;98480.13;5056070;28;20783;-82
2022/05/19 07:40:23;;;;;;;2.63;2.43;;;21.30;47.10;;;20.78;39.65;98492.78;5057806;28;20463;-80
2022/05/19 07:42:50;;;;;;;8.97;3.17;;;21.50;47.00;;;20.93;39.22;98492.03;5073983;28;20496;-84
2022/05/19 07:45:18;;;;;;;6.07;5.07;;;21.60;46.90;;;21.20;39.15;98497.28;5058312;28;20479;-81
2022/05/19 07:47:45;;;;;;;3.80;2.60;;;21.90;47.10;;;21.01;39.38;98496.16;5056380;28;20453;-83
2022/05/19 07:50:13;;;;;;;3.83;3.33;;;21.80;46.80;;;21.14;39.29;98494.81;5057540;28;20917;-80
2022/05/19 07:52:41;;;;;;;2.63;2.43;;;21.90;47.00;;;21.05;39.93;98498.06;5057398;28;20889;-83
2022/05/19 07:55:10;;;;;;;3.97;2.60;;;21.90;47.20;;;21.01;39.94;98485.19;5059668;28;20573;-81
2022/05/19 07:57:39;;;;;;;5.43;3.33;;;21.90;47.30;;;21.02;39.79;98497.81;5060471;28;20534;-79
2022/05/19 08:00:08;;;;;;;6.17;3.00;;;21.80;47.10;;;20.84;39.84;98447.78;5062785;28;20439;-79
2022/05/19 08:02:35;;;;;;;3.57;2.97;;;21.80;47.30;;;21.31;39.15;98505.53;5059972;28;20437;-84
2022/05/19 08:05:02;;;;;;;3.83;3.07;;;22.00;47.10;;;21.43;39.76;98508.81;5058573;28;20497;-83
2022/05/19 08:07:29;;;;;;;2.90;2.70;;;22.10;47.50;;;21.67;39.08;98502.78;5045602;28;20440;-81
2022/05/19 08:15:37;;;;;;;3.40;2.60;;;22.20;47.20;;;21.29;40.02;98504.97;5037586;28;20484;-82
2022/05/19 08:18:09;;;;;;;2.73;2.53;;;22.10;47.50;;;21.43;39.93;98497.00;5040993;28;20844;-83
2022/05/19 08:20:41;;;;;;;3.30;2.30;;;22.20;47.50;;;21.48;39.66;98495.09;5057113;28;20449;-81
2022/05/19 08:23:12;;;;;;;5.20;3.07;;;22.20;47.60;;;21.50;40.19;98498.38;5057657;28;20444;-86
2022/05/19 08:25:40;;;;;;;6.60;2.50;;;22.20;47.80;;;21.85;39.39;98492.31;5061647;28;20488;-85
2022/05/19 08:28:09;;;;;;;3.70;2.90;;;22.40;47.60;;;21.82;39.16;98495.63;5062025;28;20439;-88
2022/05/19 08:30:36;;;;;;;4.63;2.60;;;22.50;47.40;;;21.98;39.00;98480.72;5071000;28;20426;-89
2022/05/19 08:33:06;;;;;;;2.80;2.60;;;22.70;47.40;;;21.97;38.83;98478.25;5078266;28;20489;-89
2022/05/19 08:35:34;;;;;;;2.73;2.40;;;22.70;47.30;;;21.93;38.88;98494.50;5071419;28;20480;-78
2022/05/19 08:38:01;;;;;;;3.10;2.43;;;22.70;47.40;;;22.16;38.83;98497.72;5070557;28;20490;-79
2022/05/19 08:40:29;;;;;;;3.13;2.83;;;22.80;47.50;;;22.27;38.60;98488.34;5054332;28;20477;-76
2022/05/19 08:43:00;;;;;;;3.13;2.87;;;22.90;47.50;;;22.29;38.70;98486.13;5055148;28;20487;-78
2022/05/19 08:45:34;;;;;;;7.87;2.93;;;23.00;47.40;;;22.30;38.82;98482.25;5070298;28;20446;-79
2022/05/19 08:48:06;;;;;;;5.07;4.60;;;23.10;47.60;;;22.67;38.55;98480.19;5070746;28;20520;-78
2022/05/19 08:50:45;;;;;;;3.87;2.70;;;23.20;47.60;;;22.66;38.00;98475.78;5056280;28;20454;-79
2022/05/19 08:53:13;;;;;;;3.80;2.77;;;23.30;47.30;;;22.74;38.39;98477.13;5055229;28;20437;-79
2022/05/19 08:55:43;;;;;;;4.00;2.60;;;23.40;47.50;;;22.78;37.83;98472.69;5054821;28;20523;-77
2022/05/19 08:58:35;;;;;;;4.10;3.00;;;23.50;47.30;;;23.04;37.65;98478.03;5053543;28;20908;-78
2022/05/19 09:01:11;;;;;;;3.23;2.87;;;23.60;47.40;;;22.88;37.71;98471.78;5052924;28;20502;-78
2022/05/19 09:03:47;;;;;;;3.90;2.77;;;23.60;47.10;;;22.89;38.01;98463.25;5070108;28;20488;-80
2022/05/19 09:06:31;;;;;;;4.60;3.00;;;23.60;47.30;;;23.00;38.78;98460.44;5069829;28;20444;-77
2022/05/19 09:09:17;;;;;;;4.93;2.47;;;23.70;47.70;;;23.07;38.22;98460.91;5054896;28;20429;-78
2022/05/19 09:11:57;;;;;;;3.53;2.87;;;23.70;47.60;;;23.24;37.73;98460.50;5053754;28;20522;-76
2022/05/19 09:14:27;;;;;;;8.37;2.80;;;23.80;47.50;;;23.19;37.22;98452.28;5054811;28;20470;-77
2022/05/19 09:17:02;;;;;;;6.10;2.57;;;23.90;47.10;;;23.39;37.26;98450.50;5069868;28;20490;-77
2022/05/19 09:19:35;;;;;;;3.87;2.60;;;24.00;47.20;;;23.39;37.66;98450.50;5054055;28;20471;-77
2022/05/19 09:22:08;;;;;;;4.60;2.80;;;24.10;47.50;;;23.57;37.54;98451.69;5070499;28;20441;-76
2022/05/19 09:24:36;;;;;;;7.00;2.50;;;24.20;47.60;;;23.60;37.33;98437.34;5054515;28;20442;-77
2022/05/19 09:27:04;;;;;;;3.90;2.70;;;24.30;47.40;;;23.46;36.68;98442.69;5054428;28;20464;-76
2022/05/19 09:29:36;;;;;;;3.10;2.87;;;24.30;46.80;;;23.40;37.45;98435.59;5052574;28;20529;-76
2022/05/19 09:32:13;;;;;;;21.37;8.67;;;24.10;47.00;;;23.57;37.90;98424.94;5054495;28;20471;-76
2022/05/19 09:34:46;;;;;;;3.10;2.80;;;24.20;47.70;;;23.65;37.02;98426.25;5054088;28;20465;-77
2022/05/19 09:37:17;;;;;;;5.10;3.63;;;24.30;47.30;;;23.68;37.26;98422.91;5055549;28;20538;-75
2022/05/19 09:39:51;;;;;;;3.03;2.40;;;24.30;47.20;;;23.67;37.12;98424.00;5069087;28;20445;-72
2022/05/19 09:42:25;;;;;;;6.03;3.20;;;24.40;47.10;;;23.69;37.00;98421.78;5054429;28;20484;-80
2022/05/19 09:44:59;;;;;;;4.23;2.23;;;24.40;47.50;;;23.90;36.27;98427.91;5055330;28;20530;-79
2022/05/19 09:47:33;;;;;;;2.87;2.47;;;24.50;46.90;;;23.85;36.94;98427.13;5054124;28;20470;-79
2022/05/19 09:50:11;;;;;;;2.90;2.60;;;24.60;47.20;;;23.98;36.45;98420.91;5054358;28;20439;-80
2022/05/19 09:52:42;;;;;;;8.10;2.93;;;24.60;46.70;;;24.30;35.50;98408.38;5054165;28;20437;-80
2022/05/19 09:55:12;;;;;;;3.73;2.30;;;24.80;46.50;;;24.33;35.52;98409.75;5070989;28;20462;-82
2022/05/19 09:57:46;;;;;;;3.10;2.70;;;25.00;46.40;;;24.19;35.08;98401.38;5070009;28;20455;-82
2022/05/19 10:00:34;;;;;;;4.90;2.77;;;25.00;46.00;;;24.02;36.00;98405.44;5054522;28;20444;-83
2022/05/19 10:03:10;;;;;;;2.93;2.50;;;24.80;46.50;;;24.14;35.82;98421.59;5053913;28;20440;-82
2022/05/19 10:05:47;;;;;;;3.27;2.53;;;24.80;46.50;;;24.56;35.16;98419.09;5069821;28;20433;-83
2022/05/19 10:08:19;;;;;;;4.83;2.40;;;25.00;46.40;;;24.18;35.56;98406.06;5069739;28;20453;-79
2022/05/19 10:11:01;;;;;;;6.50;3.17;;;24.90;46.10;;;24.31;35.38;98404.50;5054618;28;20615;-80
2022/05/19 10:13:33;;;;;;;8.20;3.03;;;25.00;46.50;;;24.61;35.77;98404.38;5069928;28;20467;-80
2022/05/19 10:16:12;;;;;;;5.57;2.80;;;25.10;46.70;;;24.58;35.79;98411.31;5055514;28;20462;-81
2022/05/19 10:19:10;;;;;;;2.70;2.50;;;25.20;46.70;;;24.95;34.74;98408.03;5058209;28;20486;-81
2022/05/19 10:21:54;;;;;;;3.30;2.60;;;25.40;46.30;;;25.06;35.01;98395.69;5058049;28;20439;-80
2022/05/19 10:24:50;;;;;;;2.63;2.43;;;25.60;46.20;;;25.27;34.00;98395.34;5063986;28;20428;-81
2022/05/19 10:33:16;;;;;;;3.10;2.60;;;25.90;45.30;;;25.63;33.44;98358.75;5059320;28;20429;-81
2022/05/19 10:36:07;;;;;;;2.87;2.10;;;26.20;45.60;;;25.36;34.00;98392.69;5066409;28;20460;-81
2022/05/19 10:38:49;;;;;;;3.93;2.30;;;26.00;45.40;;;25.56;33.36;98386.00;5038305;28;20468;-80
2022/05/19 10:41:47;;;;;;;4.20;2.50;;;26.10;45.20;;;25.81;32.63;98375.53;5037979;28;20491;-73
2022/05/19 10:44:41;;;;;;;3.00;2.37;;;26.30;45.20;;;25.85;32.48;98360.78;5037993;28;20435;-77
2022/05/19 10:47:22;;;;;;;1.70;1.60;;;26.50;45.10;;;25.76;32.70;98368.16;5056691;28;20448;-82
2022/05/19 10:50:13;;;;;;;2.67;2.37;;;26.40;44.80;;;25.91;32.24;98364.25;5039015;28;20481;-85